Time;durP1;ratioP1;P1;durP2;ratioP2;P2;SDS_P1;SDS_P2;PMS_P1;PMS_P2;Temp;Humidity;BMP_temperature;BMP_pressure;BME280_temperature;BME280_humidity;BME280_pressure;Samples;Min_cycle;Max_cycle;Signal;HPM_P1;HPM_P2
2023/09/05 00:00:46;;;;;;;;;;;;;;;14.72;75.59;102338.40;105723;1269;61193;-80
2023/09/05 00:03:32;;;;;;;;;;;;;;;14.72;75.60;102338.55;105540;1270;126068;-80
2023/09/05 00:05:59;;;;;;;;;;;;;;;14.72;75.68;102335.18;105625;1270;61377;-80
2023/09/05 00:08:26;;;;;;;;;;;;;;;14.69;75.68;102332.11;105772;1270;72765;-80
2023/09/05 00:10:52;;;;;;;;;;;;;;;14.68;75.76;102328.52;105714;1270;125114;-79
2023/09/05 00:13:18;;;;;;;;;;;;;;;14.66;75.77;102329.86;105850;1268;61397;-77
2023/09/05 00:15:45;;;;;;;;;;;;;;;14.65;75.82;102330.17;105574;1270;125036;-80
2023/09/05 00:18:11;;;;;;;;;;;;;;;14.64;75.79;102329.78;105748;1269;61418;-78
2023/09/05 00:20:38;;;;;;;;;;;;;;;14.63;75.89;102329.23;105571;1269;61244;-77
2023/09/05 00:23:04;;;;;;;;;;;;;;;14.62;75.78;102328.48;105523;1273;125268;-78
2023/09/05 00:25:32;;;;;;;;;;;;;;;14.61;75.83;102329.33;105725;1271;61319;-78
2023/09/05 00:28:00;;;;;;;;;;;;;;;14.59;75.93;102331.05;105714;1270;125432;-78
2023/09/05 00:30:27;;;;;;;;;;;;;;;14.56;75.86;102322.61;105772;1271;66019;-78
2023/09/05 00:32:54;;;;;;;;;;;;;;;14.53;75.86;102324.65;105710;1270;125248;-78
2023/09/05 00:35:20;;;;;;;;;;;;;;;14.51;75.93;102317.52;108079;1269;59148;-79
2023/09/05 00:37:48;;;;;;;;;;;;;;;14.49;75.92;102319.74;108176;1269;59044;-79
2023/09/05 00:40:15;;;;;;;;;;;;;;;14.48;76.09;102323.92;108083;1269;124951;-78
2023/09/05 00:42:41;;;;;;;;;;;;;;;14.47;76.04;102326.02;106294;1271;65148;-77
2023/09/05 00:45:10;;;;;;;;;;;;;;;14.46;76.03;102324.39;105595;1270;125104;-78
2023/09/05 00:47:37;;;;;;;;;;;;;;;14.45;76.12;102324.00;105741;1270;61279;-78
2023/09/05 00:50:07;;;;;;;;;;;;;;;14.46;76.25;102323.85;105671;1276;60810;-78
2023/09/05 00:52:33;;;;;;;;;;;;;;;14.45;76.30;102322.59;105514;1270;125153;-78
2023/09/05 00:55:00;;;;;;;;;;;;;;;14.44;76.24;102323.25;105624;1268;66501;-78
2023/09/05 00:57:27;;;;;;;;;;;;;;;14.42;76.36;102318.61;105613;1270;125618;-78
2023/09/05 00:59:53;;;;;;;;;;;;;;;14.41;76.44;102314.48;105717;1271;61355;-78
2023/09/05 01:02:20;;;;;;;;;;;;;;;14.39;76.49;102316.04;105729;1272;61196;-78
2023/09/05 01:04:46;;;;;;;;;;;;;;;14.37;76.54;102313.68;105631;1270;124982;-79
2023/09/05 01:07:16;;;;;;;;;;;;;;;14.37;76.58;102316.84;105703;1269;61393;-81
2023/09/05 01:09:45;;;;;;;;;;;;;;;14.37;76.73;102316.13;105736;1270;125439;-79
2023/09/05 01:12:11;;;;;;;;;;;;;;;14.36;76.72;102316.10;105844;1273;61409;-80
2023/09/05 01:14:41;;;;;;;;;;;;;;;14.36;76.83;102315.77;105939;1268;61279;-81
2023/09/05 01:17:10;;;;;;;;;;;;;;;14.37;76.95;102312.60;105709;1270;125163;-79
2023/09/05 01:19:39;;;;;;;;;;;;;;;14.36;76.95;102311.15;105721;1270;67081;-81
2023/09/05 01:22:09;;;;;;;;;;;;;;;14.33;76.97;102310.71;105665;1269;125125;-82
2023/09/05 01:24:35;;;;;;;;;;;;;;;14.33;77.07;102309.64;105854;1272;60310;-81
2023/09/05 01:27:03;;;;;;;;;;;;;;;14.33;77.21;102307.18;105585;1269;126922;-81
2023/09/05 01:29:34;;;;;;;;;;;;;;;14.34;77.16;102304.89;105642;1271;74807;-81
2023/09/05 01:32:01;;;;;;;;;;;;;;;14.34;77.33;102303.13;105819;1268;65022;-82
2023/09/05 01:34:28;;;;;;;;;;;;;;;14.33;77.19;102302.41;105681;1273;125180;-82
2023/09/05 01:36:54;;;;;;;;;;;;;;;14.32;77.27;102305.38;105739;1267;59283;-82
2023/09/05 01:39:21;;;;;;;;;;;;;;;14.29;77.19;102303.87;105594;1270;125118;-81
2023/09/05 01:41:48;;;;;;;;;;;;;;;14.27;77.32;102304.32;105925;1269;59592;-82
2023/09/05 01:44:15;;;;;;;;;;;;;;;14.25;77.22;102302.48;105828;1271;65099;-81
2023/09/05 01:46:41;;;;;;;;;;;;;;;14.24;77.36;102301.90;105687;1270;125088;-81
2023/09/05 01:49:08;;;;;;;;;;;;;;;14.24;77.35;102302.96;105807;1271;61326;-82
2023/09/05 01:51:34;;;;;;;;;;;;;;;14.25;77.45;102310.77;105708;1270;125133;-82
2023/09/05 01:54:00;;;;;;;;;;;;;;;14.25;77.35;102313.41;105842;1270;60268;-82
2023/09/05 01:56:27;;;;;;;;;;;;;;;14.25;77.49;102317.32;105809;1270;61280;-82
2023/09/05 01:58:54;;;;;;;;;;;;;;;14.26;77.62;102311.16;105664;1270;125426;-82
2023/09/05 02:01:20;;;;;;;;;;;;;;;14.28;77.73;102304.88;105785;1268;61292;-82
2023/09/05 02:03:47;;;;;;;;;;;;;;;14.29;77.71;102303.50;105616;1268;125321;-81
2023/09/05 02:06:14;;;;;;;;;;;;;;;14.29;77.67;102302.45;105717;1268;74713;-81
2023/09/05 02:08:40;;;;;;;;;;;;;;;14.29;77.69;102302.25;105731;1270;66303;-81
2023/09/05 02:11:10;;;;;;;;;;;;;;;14.29;77.80;102297.15;105481;1268;125331;-81
2023/09/05 02:13:37;;;;;;;;;;;;;;;14.30;77.94;102295.56;105802;1269;61368;-82
2023/09/05 02:16:03;;;;;;;;;;;;;;;14.31;77.96;102296.52;105707;1269;125248;-82
2023/09/05 02:18:30;;;;;;;;;;;;;;;14.32;77.96;102295.27;105794;1271;61422;-82
2023/09/05 02:21:00;;;;;;;;;;;;;;;14.33;78.04;102297.63;105655;1270;125278;-81
2023/09/05 02:23:27;;;;;;;;;;;;;;;14.34;78.08;102297.14;105840;1270;72720;-82
2023/09/05 02:25:57;;;;;;;;;;;;;;;14.35;78.16;102297.70;105673;1270;61164;-82
2023/09/05 02:28:23;;;;;;;;;;;;;;;14.36;78.15;102294.91;105552;1269;125090;-82
2023/09/05 02:30:50;;;;;;;;;;;;;;;14.36;78.06;102292.61;105718;1273;73198;-82
2023/09/05 02:33:18;;;;;;;;;;;;;;;14.35;77.98;102295.38;105704;1273;127690;-82
2023/09/05 02:35:45;;;;;;;;;;;;;;;14.33;78.02;102289.34;105806;1270;72663;-82
2023/09/05 02:38:13;;;;;;;;;;;;;;;14.34;77.99;102290.95;105734;1270;59894;-83
2023/09/05 02:40:43;;;;;;;;;;;;;;;14.33;77.84;102294.83;105706;1273;125268;-83
2023/09/05 02:43:10;;;;;;;;;;;;;;;14.32;77.74;102284.70;105758;1273;75087;-82
2023/09/05 02:45:36;;;;;;;;;;;;;;;14.28;77.65;102278.58;105734;1270;125396;-83
2023/09/05 02:48:03;;;;;;;;;;;;;;;14.26;77.68;102279.55;105790;1268;61804;-84
2023/09/05 02:50:29;;;;;;;;;;;;;;;14.25;77.62;102281.98;105839;1270;59363;-84
2023/09/05 02:52:56;;;;;;;;;;;;;;;14.24;77.58;102279.48;105679;1269;125023;-83
2023/09/05 02:55:22;;;;;;;;;;;;;;;14.20;77.57;102274.60;105549;1270;61397;-82
2023/09/05 02:57:49;;;;;;;;;;;;;;;14.18;77.49;102271.52;105764;1269;125153;-82
2023/09/05 03:00:20;;;;;;;;;;;;;;;14.15;77.44;102273.71;105860;1270;61219;-83
2023/09/05 03:02:46;;;;;;;;;;;;;;;14.12;77.60;102273.80;105782;1270;61211;-82
2023/09/05 03:05:13;;;;;;;;;;;;;;;14.11;77.60;102269.16;105660;1270;124624;-82
2023/09/05 03:07:40;;;;;;;;;;;;;;;14.08;77.58;102266.25;105631;1276;74738;-83
2023/09/05 03:10:06;;;;;;;;;;;;;;;14.07;77.59;102266.88;105706;1273;125148;-83
2023/09/05 03:12:33;;;;;;;;;;;;;;;14.04;77.62;102266.62;105743;1269;72411;-83
2023/09/05 03:15:00;;;;;;;;;;;;;;;14.02;77.72;102266.05;105648;1270;125821;-83
2023/09/05 03:17:26;;;;;;;;;;;;;;;14.01;77.58;102261.92;105723;1273;61310;-82
2023/09/05 03:19:53;;;;;;;;;;;;;;;13.98;77.69;102262.20;105822;1272;61372;-82
2023/09/05 03:22:19;;;;;;;;;;;;;;;13.97;77.72;102262.31;105697;1270;125553;-82
2023/09/05 03:24:46;;;;;;;;;;;;;;;13.96;77.88;102258.21;105675;1270;59321;-82
2023/09/05 03:27:13;;;;;;;;;;;;;;;13.94;77.71;102259.23;105405;1269;125181;-82
2023/09/05 03:29:39;;;;;;;;;;;;;;;13.94;77.83;102259.93;105822;1270;61221;-82
2023/09/05 03:32:06;;;;;;;;;;;;;;;13.93;77.71;102263.95;105676;1271;61320;-82
2023/09/05 03:34:34;;;;;;;;;;;;;;;13.93;77.70;102262.36;105789;1270;125650;-81
2023/09/05 03:37:01;;;;;;;;;;;;;;;13.93;77.80;102258.64;105730;1269;72790;-81
2023/09/05 03:39:27;;;;;;;;;;;;;;;13.91;77.80;102255.57;105643;1270;126238;-82
2023/09/05 03:41:54;;;;;;;;;;;;;;;13.90;77.72;102256.06;105880;1270;61281;-81
2023/09/05 03:44:20;;;;;;;;;;;;;;;13.89;77.79;102255.14;105699;1268;61362;-82
2023/09/05 03:46:46;;;;;;;;;;;;;;;13.88;77.90;102253.34;105644;1273;125561;-82
2023/09/05 03:49:13;;;;;;;;;;;;;;;13.88;77.82;102252.29;105742;1273;61350;-81
2023/09/05 03:51:39;;;;;;;;;;;;;;;13.87;77.89;102247.32;105700;1269;125117;-83
2023/09/05 03:54:06;;;;;;;;;;;;;;;13.87;77.96;102248.03;105707;1270;61350;-82
2023/09/05 03:56:32;;;;;;;;;;;;;;;13.90;78.00;102253.92;105821;1270;59397;-82
2023/09/05 03:58:59;;;;;;;;;;;;;;;13.90;78.01;102258.02;105668;1270;126423;-82
2023/09/05 04:01:26;;;;;;;;;;;;;;;13.91;77.96;102260.19;105840;1270;59746;-82
2023/09/05 04:03:52;;;;;;;;;;;;;;;13.95;78.12;102259.77;105714;1270;126273;-81
2023/09/05 04:06:19;;;;;;;;;;;;;;;14.17;78.58;102260.73;105816;1270;61438;-82
2023/09/05 04:08:45;;;;;;;;;;;;;;;14.58;79.00;102257.85;105771;1272;74002;-82
2023/09/05 04:11:12;;;;;;;;;;;;;;;14.74;78.04;102258.25;105666;1270;125345;-83
2023/09/05 04:13:38;;;;;;;;;;;;;;;14.70;77.52;102262.69;105775;1271;72729;-79
2023/09/05 04:16:05;;;;;;;;;;;;;;;14.65;77.33;102266.05;105672;1270;125334;-78
2023/09/05 04:18:32;;;;;;;;;;;;;;;14.60;77.35;102269.79;105850;1270;61410;-81
2023/09/05 04:20:59;;;;;;;;;;;;;;;14.58;77.33;102265.13;105750;1270;125181;-81
2023/09/05 04:23:25;;;;;;;;;;;;;;;14.59;77.40;102266.39;105803;1270;66577;-84
2023/09/05 04:25:58;;;;;;;;;;;;;;;14.60;77.37;102267.29;105540;1270;71480;-82
2023/09/05 04:28:25;;;;;;;;;;;;;;;14.62;77.45;102263.84;105473;1270;125062;-84
2023/09/05 04:30:55;;;;;;;;;;;;;;;14.66;77.45;102263.09;105863;1270;61879;-85
2023/09/05 04:33:25;;;;;;;;;;;;;;;14.83;77.96;102267.33;105573;1270;124155;-85
2023/09/05 04:35:52;;;;;;;;;;;;;;;16.05;80.51;102269.80;105713;1269;65818;-80
2023/09/05 04:38:18;;;;;;;;;;;;;;;17.78;80.24;102271.38;105678;1269;59474;-82
2023/09/05 04:40:45;;;;;;;;;;;;;;;19.42;78.60;102264.30;105769;1269;124783;-81
2023/09/05 04:43:11;;;;;;;;;;;;;;;20.92;76.60;102260.58;105925;1269;59287;-79
2023/09/05 04:45:38;;;;;;;;;;;;;;;22.19;74.37;102256.80;105793;1269;124610;-79
2023/09/05 04:48:04;;;;;;;;;;;;;;;23.27;72.30;102256.33;105815;1273;61483;-80
2023/09/05 04:50:31;;;;;;;;;;;;;;;24.35;70.37;102260.92;105901;1270;71647;-79
2023/09/05 04:52:57;;;;;;;;;;;;;;;25.30;68.29;102261.61;105705;1270;124983;-87
2023/09/05 04:55:25;;;;;;;;;;;;;;;26.19;66.76;102260.02;105816;1269;61262;-82
2023/09/05 04:57:51;;;;;;;;;;;;;;;27.01;64.78;102257.86;105870;1269;124286;-84
2023/09/05 05:00:19;;;;;;;;;;;;;;;27.51;63.07;102256.50;105844;1270;61455;-83
2023/09/05 05:02:45;;;;;;;;;;;;;;;27.73;61.41;102261.60;105886;1271;64129;-86
2023/09/05 05:05:12;;;;;;;;;;;;;;;27.33;59.66;102264.43;105880;1270;124089;-87
2023/09/05 05:07:39;;;;;;;;;;;;;;;26.51;58.22;102273.90;105884;1268;61431;-87
2023/09/05 05:10:07;;;;;;;;;;;;;;;25.57;57.70;102270.98;105851;1268;124566;-87
2023/09/05 05:12:33;;;;;;;;;;;;;;;24.73;57.73;102272.45;105801;1270;65422;-91
2023/09/05 05:15:00;;;;;;;;;;;;;;;24.02;58.02;102270.31;105699;1272;125171;-87
2023/09/05 05:17:26;;;;;;;;;;;;;;;23.44;58.40;102270.44;105787;1269;61300;-89
2023/09/05 05:19:53;;;;;;;;;;;;;;;22.92;58.79;102269.50;105371;1269;61348;-88
2023/09/05 05:22:19;;;;;;;;;;;;;;;22.50;59.39;102273.48;105696;1269;124935;-90
2023/09/05 05:24:46;;;;;;;;;;;;;;;22.12;59.84;102274.50;105563;1270;59322;-90
2023/09/05 05:27:12;;;;;;;;;;;;;;;21.83;60.21;102272.84;105546;1270;125332;-91
2023/09/05 05:29:39;;;;;;;;;;;;;;;21.55;60.67;102275.77;105757;1273;59303;-88
2023/09/05 05:32:05;;;;;;;;;;;;;;;21.38;61.06;102281.20;105865;1271;59595;-89
2023/09/05 05:34:32;;;;;;;;;;;;;;;21.23;61.42;102279.72;105894;1270;124914;-86
2023/09/05 05:36:59;;;;;;;;;;;;;;;21.03;61.61;102279.42;105698;1273;66322;-87
2023/09/05 05:40:04;;;;;;;;;;;;;;;20.87;61.82;102283.23;105555;1270;125179;-89
2023/09/05 05:42:41;;;;;;;;;;;;;;;20.66;62.24;102275.96;105130;1277;61398;-89
2023/09/05 05:45:08;;;;;;;;;;;;;;;20.52;62.44;102274.58;105088;1276;124700;-89
2023/09/05 05:47:34;;;;;;;;;;;;;;;20.40;62.80;102270.73;105059;1276;73429;-89
2023/09/05 05:50:01;;;;;;;;;;;;;;;20.33;63.26;102273.52;105056;1276;61250;-87
2023/09/05 05:52:27;;;;;;;;;;;;;;;20.29;63.55;102270.28;105190;1276;125260;-88
2023/09/05 05:54:54;;;;;;;;;;;;;;;20.23;63.62;102273.77;105225;1276;61295;-90
2023/09/05 05:57:20;;;;;;;;;;;;;;;20.13;63.80;102276.72;105322;1276;125477;-87
2023/09/05 05:59:56;;;;;;;;;;;;;;;20.06;64.10;102277.19;105393;1276;61163;-89
2023/09/05 06:02:45;;;;;;;;;;;;;;;20.02;64.42;102273.76;105075;1276;65073;-89
2023/09/05 06:05:14;;;;;;;;;;;;;;;19.97;64.60;102277.81;104929;1279;124146;-89
2023/09/05 06:07:41;;;;;;;;;;;;;;;19.91;64.84;102273.83;105073;1276;61333;-88
2023/09/05 06:10:07;;;;;;;;;;;;;;;19.89;65.05;102275.93;104982;1276;124378;-88
2023/09/05 06:12:34;;;;;;;;;;;;;;;19.88;65.30;102274.33;104903;1276;74681;-76
2023/09/05 06:15:01;;;;;;;;;;;;;;;19.88;65.53;102275.05;104468;1278;124425;-78
2023/09/05 06:17:27;;;;;;;;;;;;;;;19.84;65.67;102267.33;104624;1277;72835;-77
2023/09/05 06:19:54;;;;;;;;;;;;;;;19.87;65.87;102269.33;105044;1268;61678;-77
2023/09/05 06:22:23;;;;;;;;;;;;;;;19.90;66.12;102267.94;105380;1271;124373;-90
2023/09/05 06:24:50;;;;;;;;;;;;;;;19.91;66.21;102265.28;105815;1272;72420;-90
2023/09/05 06:27:19;;;;;;;;;;;;;;;19.96;66.26;102265.14;105584;1270;126637;-89
2023/09/05 06:29:45;;;;;;;;;;;;;;;20.00;66.35;102260.20;105570;1270;72775;-89
2023/09/05 06:32:12;;;;;;;;;;;;;;;20.05;66.27;102260.25;105591;1270;59226;-90
2023/09/05 06:34:40;;;;;;;;;;;;;;;20.10;66.24;102255.31;105521;1270;124392;-89
2023/09/05 06:37:06;;;;;;;;;;;;;;;20.17;66.33;102254.48;105779;1269;74387;-90
2023/09/05 06:39:34;;;;;;;;;;;;;;;20.25;66.33;102257.23;105644;1270;124525;-89
2023/09/05 06:42:18;;;;;;;;;;;;;;;;;;;;;
2023/09/05 06:45:08;;;;;;;;;;;;;;;20.40;66.35;102258.25;104945;1273;124400;-90
2023/09/05 06:47:35;;;;;;;;;;;;;;;20.47;66.36;102257.95;105736;1271;60138;-89
2023/09/05 06:50:04;;;;;;;;;;;;;;;20.53;66.11;102255.86;105772;1269;73761;-90
2023/09/05 06:52:31;;;;;;;;;;;;;;;20.59;66.06;102257.17;105385;1269;127291;-88
2023/09/05 06:54:57;;;;;;;;;;;;;;;20.66;66.11;102252.95;105640;1269;72806;-90
2023/09/05 06:57:24;;;;;;;;;;;;;;;20.74;66.07;102250.33;105599;1270;124574;-89
2023/09/05 06:59:50;;;;;;;;;;;;;;;20.82;65.79;102254.13;105687;1270;61208;-89
2023/09/05 07:02:17;;;;;;;;;;;;;;;20.90;65.55;102258.10;105510;1269;74733;-88
2023/09/05 07:04:43;;;;;;;;;;;;;;;21.01;65.41;102251.21;105446;1271;125917;-90
2023/09/05 07:07:10;;;;;;;;;;;;;;;21.13;65.27;102255.92;105186;1273;71468;-90
2023/09/05 07:09:37;;;;;;;;;;;;;;;21.26;65.19;102253.84;105502;1273;124431;-88
2023/09/05 07:12:06;;;;;;;;;;;;;;;21.41;65.02;102256.94;105634;1270;61171;-88
2023/09/05 07:14:33;;;;;;;;;;;;;;;21.55;64.91;102253.64;105555;1271;72730;-84
2023/09/05 07:16:59;;;;;;;;;;;;;;;21.71;64.78;102255.65;105738;1270;125047;-89
2023/09/05 07:19:26;;;;;;;;;;;;;;;21.88;64.29;102255.33;105850;1272;72850;-88
2023/09/05 07:21:53;;;;;;;;;;;;;;;22.05;63.96;102251.42;105570;1271;124908;-89
2023/09/05 07:24:19;;;;;;;;;;;;;;;22.22;63.64;102245.73;105820;1270;61422;-85
2023/09/05 07:26:46;;;;;;;;;;;;;;;22.36;63.25;102242.72;105671;1269;73831;-88
2023/09/05 07:29:12;;;;;;;;;;;;;;;22.51;63.28;102236.63;105750;1271;125397;-88
2023/09/05 07:31:39;;;;;;;;;;;;;;;22.63;63.12;102235.90;106039;1270;72658;-85
2023/09/05 07:34:06;;;;;;;;;;;;;;;22.74;62.92;102235.70;105508;1270;124319;-86
2023/09/05 07:36:33;;;;;;;;;;;;;;;22.86;62.72;102233.52;105619;1269;61381;-89
2023/09/05 07:39:04;;;;;;;;;;;;;;;22.96;62.11;102230.27;105636;1273;124259;-84
2023/09/05 07:41:32;;;;;;;;;;;;;;;23.04;61.68;102233.14;105778;1273;66457;-84
2023/09/05 07:43:58;;;;;;;;;;;;;;;23.13;61.54;102229.54;105596;1271;387391;-84
2023/09/05 07:46:25;;;;;;;;;;;;;;;23.23;61.51;102232.37;105664;1273;124495;-84
2023/09/05 07:48:52;;;;;;;;;;;;;;;23.31;61.17;102232.51;105636;1270;61443;-89
2023/09/05 07:51:22;;;;;;;;;;;;;;;23.37;60.82;102232.48;105403;1271;124535;-89
2023/09/05 07:53:50;;;;;;;;;;;;;;;23.40;60.63;102235.52;105580;1269;66295;-89
2023/09/05 07:56:16;;;;;;;;;;;;;;;23.43;60.63;102231.20;105575;1270;72529;-90
2023/09/05 07:58:43;;;;;;;;;;;;;;;23.47;60.60;102232.08;105414;1271;124447;-90
2023/09/05 08:01:09;;;;;;;;;;;;;;;23.52;60.24;102232.41;105683;1272;61325;-90
2023/09/05 08:03:36;;;;;;;;;;;;;;;23.58;60.45;102228.98;105586;1268;124391;-85
2023/09/05 08:06:04;;;;;;;;;;;;;;;23.67;60.59;102232.15;105849;1270;66086;-85
2023/09/05 08:08:31;;;;;;;;;;;;;;;23.77;60.40;102236.77;105861;1269;72731;-85
2023/09/05 08:10:57;;;;;;;;;;;;;;;23.84;60.10;102237.27;105677;1270;124270;-85
2023/09/05 08:13:25;;;;;;;;;;;;;;;23.86;60.00;102239.77;105845;1271;60428;-85
2023/09/05 08:15:53;;;;;;;;;;;;;;;23.86;60.14;102238.52;105735;1269;124179;-84
2023/09/05 08:18:20;;;;;;;;;;;;;;;23.88;59.96;102237.44;105848;1273;66343;-85
2023/09/05 08:20:46;;;;;;;;;;;;;;;23.90;59.94;102238.50;105756;1269;73005;-84
2023/09/05 08:23:13;;;;;;;;;;;;;;;23.93;59.85;102238.11;105699;1273;124000;-84
2023/09/05 08:25:39;;;;;;;;;;;;;;;23.97;59.81;102237.01;105760;1268;60448;-84
2023/09/05 08:28:06;;;;;;;;;;;;;;;23.96;59.48;102232.90;105700;1273;124209;-84
2023/09/05 08:30:32;;;;;;;;;;;;;;;23.91;58.99;102232.39;105909;1270;65407;-84
2023/09/05 08:33:02;;;;;;;;;;;;;;;23.87;59.03;102229.20;105685;1269;124374;-84
2023/09/05 08:35:29;;;;;;;;;;;;;;;23.86;58.97;102226.86;105583;1271;61305;-84
2023/09/05 08:37:57;;;;;;;;;;;;;;;23.83;59.09;102229.39;105509;1276;61316;-84
2023/09/05 08:40:24;;;;;;;;;;;;;;;23.75;59.07;102228.89;105672;1270;124302;-84
2023/09/05 08:42:51;;;;;;;;;;;;;;;23.67;59.06;102225.88;105913;1271;65018;-85
2023/09/05 08:45:22;;;;;;;;;;;;;;;23.61;59.05;102228.95;105725;1271;124357;-85
2023/09/05 08:47:49;;;;;;;;;;;;;;;23.57;59.30;102230.23;108182;1271;59014;-85
2023/09/05 08:50:16;;;;;;;;;;;;;;;23.57;59.38;102230.94;108203;1268;59306;-85
2023/09/05 08:52:42;;;;;;;;;;;;;;;23.57;59.29;102232.55;106385;1269;125116;-84
2023/09/05 08:55:10;;;;;;;;;;;;;;;23.59;59.26;102235.24;105860;1273;66237;-84
2023/09/05 08:57:40;;;;;;;;;;;;;;;23.57;58.89;102234.18;105744;1270;124427;-84
2023/09/05 09:00:07;;;;;;;;;;;;;;;23.54;58.77;102236.34;105836;1269;61464;-84
2023/09/05 09:02:36;;;;;;;;;;;;;;;23.50;58.66;102233.86;105832;1271;64305;-83
2023/09/05 09:05:03;;;;;;;;;;;;;;;23.45;58.55;102234.60;105815;1267;124771;-87
2023/09/05 09:07:30;;;;;;;;;;;;;;;23.44;58.69;102232.98;105735;1271;65258;-82
2023/09/05 09:09:57;;;;;;;;;;;;;;;23.46;58.86;102227.95;105662;1270;124866;-84
2023/09/05 09:12:30;;;;;;;;;;;;;;;23.48;58.94;102227.40;105682;1271;61294;-83
2023/09/05 09:15:17;;;;;;;;;;;;;;;23.49;58.96;102229.38;105675;1270;124440;-84
2023/09/05 09:17:47;;;;;;;;;;;;;;;23.50;58.94;102230.27;105770;1271;75255;-84
2023/09/05 09:20:14;;;;;;;;;;;;;;;23.51;58.72;102232.06;105799;1273;65007;-84
2023/09/05 09:22:41;;;;;;;;;;;;;;;23.50;58.61;102234.20;105747;1276;125335;-85
2023/09/05 09:25:26;;;;;;;;;;;;;;;23.52;58.70;102234.73;105644;1273;61489;-85
2023/09/05 09:27:53;;;;;;;;;;;;;;;23.53;58.43;102231.86;105743;1269;124295;-84
2023/09/05 09:30:20;;;;;;;;;;;;;;;23.55;58.72;102233.30;105782;1270;73443;-83
2023/09/05 09:32:49;;;;;;;;;;;;;;;23.59;58.82;102230.58;105732;1269;64853;-86
2023/09/05 09:35:15;;;;;;;;;;;;;;;23.63;58.78;102231.27;105605;1271;124058;-84
2023/09/05 09:37:42;;;;;;;;;;;;;;;23.66;58.63;102230.01;105805;1273;61199;-84
2023/09/05 09:40:08;;;;;;;;;;;;;;;23.68;58.50;102226.59;105708;1270;124277;-84
2023/09/05 09:42:36;;;;;;;;;;;;;;;23.73;58.58;102221.36;105835;1270;73552;-86
2023/09/05 09:45:08;;;;;;;;;;;;;;;23.77;58.42;102215.95;105748;1269;124442;-84
2023/09/05 09:47:34;;;;;;;;;;;;;;;23.82;58.43;102215.78;105852;1271;70851;-85
2023/09/05 09:50:01;;;;;;;;;;;;;;;23.86;58.35;102213.96;105766;1272;59646;-85
2023/09/05 09:52:28;;;;;;;;;;;;;;;23.88;57.95;102213.94;105880;1271;124383;-84
2023/09/05 09:54:55;;;;;;;;;;;;;;;23.89;57.82;102212.32;105738;1270;73397;-85
2023/09/05 09:57:23;;;;;;;;;;;;;;;23.92;57.75;102210.33;105661;1270;124689;-85
2023/09/05 09:59:51;;;;;;;;;;;;;;;23.94;57.72;102209.78;105843;1271;72735;-85
2023/09/05 10:02:17;;;;;;;;;;;;;;;23.97;57.74;102200.80;105926;1268;61307;-83
2023/09/05 10:04:44;;;;;;;;;;;;;;;24.01;57.63;102201.65;105597;1272;124498;-85
2023/09/05 10:07:16;;;;;;;;;;;;;;;24.06;57.85;102194.26;105900;1268;74799;-87
2023/09/05 10:09:43;;;;;;;;;;;;;;;24.11;57.65;102198.34;105585;1270;124471;-84
2023/09/05 10:12:10;;;;;;;;;;;;;;;24.15;57.21;102204.40;105898;1271;70901;-84
2023/09/05 10:14:37;;;;;;;;;;;;;;;24.16;56.96;102200.27;105877;1270;61461;-84
2023/09/05 10:17:04;;;;;;;;;;;;;;;24.19;57.06;102195.77;105575;1270;124297;-85
2023/09/05 10:19:31;;;;;;;;;;;;;;;24.22;56.81;102193.40;105656;1271;74534;-85
2023/09/05 10:21:57;;;;;;;;;;;;;;;24.22;56.75;102189.64;105656;1271;124541;-84
2023/09/05 10:24:24;;;;;;;;;;;;;;;24.23;56.40;102186.40;105781;1270;72778;-84
2023/09/05 10:26:51;;;;;;;;;;;;;;;24.27;56.83;102187.09;105815;1274;61409;-86
2023/09/05 10:29:33;;;;;;;;;;;;;;;24.32;56.56;102185.25;105709;1271;124786;-86
2023/09/05 10:32:01;;;;;;;;;;;;;;;24.35;56.46;102181.98;105719;1273;72697;-85
2023/09/05 10:34:46;;;;;;;;;;;;;;;24.39;56.02;102179.98;105638;1270;124477;-85
2023/09/05 10:37:13;;;;;;;;;;;;;;;24.43;56.09;102188.91;105710;1270;72434;-85
2023/09/05 10:39:46;;;;;;;;;;;;;;;24.44;55.49;102183.52;105386;1271;124916;-87
2023/09/05 10:42:34;;;;;;;;;;;;;;;24.45;55.75;102178.48;105432;1271;61479;-84
2023/09/05 10:45:19;;;;;;;;;;;;;;;24.49;55.49;102172.16;105674;1270;124293;-85
2023/09/05 10:47:47;;;;;;;;;;;;;;;24.51;55.26;102172.33;105695;1273;65972;-85
2023/09/05 10:50:16;;;;;;;;;;;;;;;24.52;54.99;102168.92;105783;1267;72619;-86
2023/09/05 10:52:44;;;;;;;;;;;;;;;24.53;54.97;102165.15;105600;1268;124802;-84
2023/09/05 10:55:31;;;;;;;;;;;;;;;24.57;55.22;102165.11;105435;1270;60542;-84
2023/09/05 10:57:59;;;;;;;;;;;;;;;24.59;55.11;102159.17;105546;1271;124707;-85
2023/09/05 11:00:29;;;;;;;;;;;;;;;24.60;54.94;102157.71;105641;1270;61387;-85
2023/09/05 11:03:12;;;;;;;;;;;;;;;24.62;54.92;102160.38;105701;1271;124513;-85
2023/09/05 11:05:48;;;;;;;;;;;;;;;24.67;55.19;102156.21;105811;1273;61316;-86
2023/09/05 11:08:20;;;;;;;;;;;;;;;24.70;55.51;102151.50;105730;1270;61790;-85
2023/09/05 11:10:55;;;;;;;;;;;;;;;24.73;55.40;102150.92;105477;1272;124612;-88
2023/09/05 11:13:23;;;;;;;;;;;;;;;24.76;54.91;102149.27;105732;1273;66453;-86
2023/09/05 11:15:57;;;;;;;;;;;;;;;24.79;55.02;102145.66;105633;1270;124227;-87
2023/09/05 11:18:26;;;;;;;;;;;;;;;24.83;55.21;102147.21;105768;1271;59597;-86
2023/09/05 11:20:53;;;;;;;;;;;;;;;24.86;54.63;102141.80;105776;1271;59863;-85
2023/09/05 11:23:21;;;;;;;;;;;;;;;24.87;54.47;102139.81;105600;1271;124142;-86
2023/09/05 11:25:50;;;;;;;;;;;;;;;24.89;54.65;102136.55;105701;1271;66319;-86
2023/09/05 11:28:17;;;;;;;;;;;;;;;24.90;54.55;102132.59;105486;1268;124449;-89
2023/09/05 11:30:44;;;;;;;;;;;;;;;24.92;54.37;102129.34;105781;1270;61422;-89
2023/09/05 11:33:13;;;;;;;;;;;;;;;24.93;54.41;102126.81;105547;1271;124877;-86
2023/09/05 11:35:58;;;;;;;;;;;;;;;24.94;54.44;102127.68;105663;1271;74694;-88
2023/09/05 11:38:26;;;;;;;;;;;;;;;24.97;54.55;102126.40;105639;1270;66666;-86
2023/09/05 11:40:52;;;;;;;;;;;;;;;24.98;54.54;102129.43;105684;1272;124081;-86
2023/09/05 11:43:21;;;;;;;;;;;;;;;24.99;54.42;102128.34;105593;1274;61334;-87
2023/09/05 11:45:52;;;;;;;;;;;;;;;25.01;54.53;102124.35;105691;1271;125085;-86
2023/09/05 11:48:21;;;;;;;;;;;;;;;25.04;54.49;102121.27;105646;1271;75068;-87
2023/09/05 11:50:48;;;;;;;;;;;;;;;25.06;54.54;102120.35;105766;1273;66276;-89
2023/09/05 11:53:16;;;;;;;;;;;;;;;25.10;54.51;102115.45;105711;1268;123996;-88
2023/09/05 11:55:50;;;;;;;;;;;;;;;25.14;54.57;102110.18;105737;1271;61276;-87
2023/09/05 11:58:18;;;;;;;;;;;;;;;25.18;54.48;102105.10;105402;1276;124210;-87
2023/09/05 12:00:45;;;;;;;;;;;;;;;25.20;54.34;102104.71;105554;1269;74752;-87
2023/09/05 12:03:15;;;;;;;;;;;;;;;25.20;54.15;102099.85;105581;1273;124516;-87
2023/09/05 12:05:49;;;;;;;;;;;;;;;25.21;54.10;102098.05;105731;1268;72444;-86
2023/09/05 12:08:20;;;;;;;;;;;;;;;25.23;54.13;102095.70;105665;1274;61419;-87
2023/09/05 12:10:55;;;;;;;;;;;;;;;25.25;53.91;102090.84;105766;1269;124428;-86
2023/09/05 12:13:35;;;;;;;;;;;;;;;25.27;53.89;102091.86;105685;1271;74819;-86
2023/09/05 12:16:03;;;;;;;;;;;;;;;25.29;53.88;102087.37;105690;1271;124283;-86
2023/09/05 12:18:29;;;;;;;;;;;;;;;25.31;53.86;102082.48;105762;1273;72335;-88
2023/09/05 12:21:00;;;;;;;;;;;;;;;25.32;53.55;102082.83;105693;1273;61313;-88
2023/09/05 12:23:27;;;;;;;;;;;;;;;25.31;53.38;102080.52;105780;1273;61365;-88
2023/09/05 12:25:58;;;;;;;;;;;;;;;25.31;53.55;102072.23;105850;1269;72199;-85
2023/09/05 12:28:25;;;;;;;;;;;;;;;25.31;53.41;102072.06;105636;1271;124151;-88